»·PEaware :: N143VT KHND-KSEE

N143VT :: KHND-KSEE

FLIGHT INFORMATION

Flight Status: Arrived
Operator: Privately registered:
United States
More flights under this callsign
Pilot: Anonymous 16492 (16492)
Aircraft: ECLIPSE 500
(EA50)
More flights by this aircraft type
Origin: KHND Henderson
United States
Destination: KSEE Gillespie
United States
More flights between these airports :: More routes between these airports
Route: +PALLY5 TNP V514 BARET
File this flight plan on PilotEdge
Remarks:
Altitude:
(Current/Filed)
24,000ft
Speed:
(Current/Filed)
330kts
Departed: 25-Oct-18 05:04 PM
Arrived: 25-Oct-18 06:00 PM
Distance/Time
Traveled:
210nm/0:55
Distance/Time
To Go:
Arrived

Flight Plot

Page will automatically refresh every two minutes.

Flight plan parsing failed; only flown route is shown


Map Options




Map Legend


Flown Route
Filed Route
Departure Airport
Arrival Airport
Navaid (VOR, NDB)
Fix

Horizontal Profiles

Position Reports

Time Latitude Longitude Heading Altitude Ground
Speed
25-Oct-18 16:21 35.977313 -115.137427 359 2495ft 0kts
25-Oct-18 16:22 35.977313 -115.137427 359 2495ft 0kts
25-Oct-18 16:23 35.977313 -115.137427 359 2495ft 0kts
25-Oct-18 16:24 35.977313 -115.137427 359 2495ft 0kts
25-Oct-18 16:25 35.977313 -115.137427 359 2495ft 0kts
25-Oct-18 16:26 35.977313 -115.137427 359 2495ft 0kts
25-Oct-18 16:27 35.977313 -115.137427 359 2495ft 0kts
25-Oct-18 16:28 35.977313 -115.137427 359 2495ft 0kts
25-Oct-18 16:29 35.977313 -115.137427 359 2495ft 0kts
25-Oct-18 16:30 35.977313 -115.137427 359 2495ft 0kts
25-Oct-18 16:31 35.977313 -115.137427 359 2495ft 0kts
25-Oct-18 16:32 35.977313 -115.137427 359 2495ft 0kts
25-Oct-18 16:33 35.977313 -115.137427 359 2495ft 0kts
25-Oct-18 16:34 35.977313 -115.137427 359 2495ft 0kts
25-Oct-18 16:35 35.977313 -115.137427 359 2495ft 0kts
25-Oct-18 16:36 35.977313 -115.137427 359 2495ft 0kts
25-Oct-18 16:37 35.977313 -115.137427 359 2495ft 0kts
25-Oct-18 16:38 35.977313 -115.137427 359 2495ft 0kts
25-Oct-18 16:39 35.977313 -115.137427 359 2495ft 0kts
25-Oct-18 16:40 35.977313 -115.137427 359 2495ft 0kts
25-Oct-18 16:41 35.977313 -115.137427 359 2495ft 0kts
25-Oct-18 16:42 35.977313 -115.137427 359 2495ft 0kts
25-Oct-18 16:43 35.977313 -115.137427 359 2495ft 0kts
25-Oct-18 16:44 35.977313 -115.137427 359 2495ft 0kts
25-Oct-18 16:45 35.977313 -115.137427 359 2495ft 0kts
25-Oct-18 16:46 35.977313 -115.137427 359 2495ft 0kts
25-Oct-18 16:47 35.977313 -115.137427 359 2495ft 0kts
25-Oct-18 16:48 35.977313 -115.137427 359 2495ft 0kts
25-Oct-18 16:49 35.977313 -115.137427 359 2495ft 0kts
25-Oct-18 16:50 35.977313 -115.137427 359 2495ft 0kts
25-Oct-18 16:51 35.977313 -115.137427 359 2495ft 0kts
25-Oct-18 16:52 35.977313 -115.137427 359 2495ft 0kts
25-Oct-18 16:53 35.977313 -115.137427 359 2495ft 0kts
25-Oct-18 16:54 35.977313 -115.137427 359 2495ft 0kts
25-Oct-18 16:55 35.977332 -115.137423 11 2495ft 1kts
25-Oct-18 16:56 35.977453 -115.137211 74 2495ft 1kts
25-Oct-18 16:57 35.976218 -115.136406 179 2495ft 15kts
25-Oct-18 16:58 35.971057 -115.136456 182 2495ft 15kts
25-Oct-18 16:59 35.966428 -115.136536 178 2495ft 22kts
25-Oct-18 17:00 35.963274 -115.136518 162 2495ft 3kts
25-Oct-18 17:01 35.963163 -115.136413 120 2495ft 0kts
25-Oct-18 17:02 35.963163 -115.136413 120 2495ft 0kts
25-Oct-18 17:03 35.963163 -115.136413 120 2495ft 0kts
25-Oct-18 17:04 35.963163 -115.136413 120 2495ft 0kts
25-Oct-18 17:05 35.963223 -115.135651 29 2495ft 4kts
25-Oct-18 17:06 35.983027 -115.135948 1 2967ft 117kts
25-Oct-18 17:07 36.016837 -115.118117 87 4421ft 178kts
25-Oct-18 17:08 36.013027 -115.049454 89 5940ft 211kts
25-Oct-18 17:09 35.982340 -114.994122 155 7378ft 233kts
25-Oct-18 17:10 35.920953 -114.965556 171 9201ft 244kts
25-Oct-18 17:11 35.862844 -115.005540 219 10950ft 246kts
25-Oct-18 17:12 35.808239 -115.057041 221 12572ft 251kts
25-Oct-18 17:13 35.759508 -115.117105 244 14015ft 250kts
25-Oct-18 17:14 35.724104 -115.193161 245 14976ft 273kts
25-Oct-18 17:15 35.675771 -115.272842 201 14983ft 325kts
25-Oct-18 17:16 35.602282 -115.287763 189 18155ft 246kts
25-Oct-18 17:17 35.534368 -115.297271 187 19436ft 248kts
25-Oct-18 17:18 35.464865 -115.302622 183 20561ft 255kts
25-Oct-18 17:19 35.393408 -115.305791 182 21620ft 261kts
25-Oct-18 17:20 35.320454 -115.308786 182 22618ft 266kts
25-Oct-18 17:21 35.245780 -115.311764 182 23555ft 272kts
25-Oct-18 17:22 35.167528 -115.314852 182 23916ft 301kts
25-Oct-18 17:23 35.079160 -115.318319 182 23892ft 334kts
25-Oct-18 17:24 34.983632 -115.322068 182 23878ft 354kts
25-Oct-18 17:25 34.889079 -115.325765 182 23872ft 366kts
25-Oct-18 17:26 34.789705 -115.331042 194 23863ft 371kts
25-Oct-18 17:27 34.692821 -115.370240 201 23877ft 370kts
25-Oct-18 17:28 34.596217 -115.411949 202 23941ft 371kts
25-Oct-18 17:29 34.499133 -115.454205 202 24127ft 372kts
25-Oct-18 17:30 34.401752 -115.496569 202 24129ft 372kts
25-Oct-18 17:31 34.311016 -115.550378 225 24131ft 365kts
25-Oct-18 17:32 34.235926 -115.631792 227 24131ft 364kts
25-Oct-18 17:33 34.166740 -115.708933 227 24131ft 364kts
25-Oct-18 17:34 34.089247 -115.787660 218 24132ft 367kts
25-Oct-18 17:35 34.012219 -115.850770 217 24066ft 367kts
25-Oct-18 17:36 33.928334 -115.918758 217 23966ft 368kts
25-Oct-18 17:37 33.845925 -115.985265 217 23932ft 367kts
25-Oct-18 17:38 33.762514 -116.052384 217 23933ft 367kts
25-Oct-18 17:39 33.679233 -116.119232 217 23934ft 367kts
25-Oct-18 17:40 33.596372 -116.188249 220 23934ft 366kts
25-Oct-18 17:41 33.514609 -116.259860 220 23935ft 366kts
25-Oct-18 17:42 33.432257 -116.331951 220 23439ft 376kts
25-Oct-18 17:43 33.351841 -116.402117 220 21445ft 341kts
25-Oct-18 17:44 33.278351 -116.466175 219 19247ft 327kts
25-Oct-18 17:45 33.211605 -116.524176 219 16748ft 278kts
25-Oct-18 17:46 33.150060 -116.577205 212 14262ft 283kts
25-Oct-18 17:47 33.075604 -116.591229 186 12096ft 252kts
25-Oct-18 17:48 33.009277 -116.599084 185 12061ft 257kts
25-Oct-18 17:49 32.938957 -116.591029 151 11538ft 274kts
25-Oct-18 17:50 32.875035 -116.551198 151 9568ft 251kts
25-Oct-18 17:51 32.817868 -116.514870 151 8544ft 236kts
25-Oct-18 17:52 32.756859 -116.478999 176 8547ft 247kts
25-Oct-18 17:53 32.737813 -116.537650 296 7949ft 254kts
25-Oct-18 17:54 32.759110 -116.612566 286 6066ft 211kts
25-Oct-18 17:55 32.773595 -116.675745 283 5794ft 200kts
25-Oct-18 17:56 32.784581 -116.734726 283 5058ft 167kts
25-Oct-18 17:57 32.794371 -116.788002 282 4167ft 176kts
25-Oct-18 17:58 32.803624 -116.838818 282 3696ft 156kts
25-Oct-18 17:59 32.812575 -116.888088 282 2506ft 139kts
25-Oct-18 18:00 32.820035 -116.928710 279 1565ft 121kts
25-Oct-18 18:01 32.826819 -116.966476 281 404ft 105kts
25-Oct-18 18:02 32.829020 -116.981270 202 391ft 7kts
25-Oct-18 18:03 32.827494 -116.980148 103 391ft 11kts
25-Oct-18 18:04 32.826532 -116.974843 102 391ft 21kts
25-Oct-18 18:05 32.825111 -116.970795 221 391ft 9kts
25-Oct-18 18:06 32.825086 -116.969647 5 391ft 0kts
25-Oct-18 18:07 32.825086 -116.969647 5 391ft 0kts
25-Oct-18 18:08 32.825086 -116.969647 5 391ft 0kts
25-Oct-18 18:09 32.825086 -116.969647 5 391ft 0kts

Navigation Log

Ident Type
Flight plan parsing failed, navigation log unavailable